Nearby METAR Reports

 

KBMG - Bloomington, Indiana, USA
Distance from station: SSE 11mi, 18km
Updated: Thu, 19-Oct-2017 7:53am EDT
Clear
Clear
 Wind from SW
Wind: SW 5 mph , 7 km/h
Temperature: 52°F , 11°C
Dew Point: 45°F , 7°C
Humidity: 77%
Barometer: 30.20 inHg , 1022.7 hPa
Clouds: Clear
Visibility: 10 miles , 16 km
2017/10/19 11:53 KBMG 191153Z 23004KT 10SM CLR 11/07 A3020 RMK AO2 SLP225 T01060067 10111 20061 53004
KHUF - Terre Haute, Indiana, USA
Distance from station: WNW 34mi, 54km
Updated: Thu, 19-Oct-2017 7:53am EDT
Clear
Clear
 Wind from S
Wind: S 6 mph , 9 km/h
Temperature: 52°F , 11°C
Dew Point: 46°F , 8°C
Humidity: 82%
Barometer: 30.18 inHg , 1022 hPa
Clouds: Clear
Visibility: 10 miles , 16 km
2017/10/19 11:53 KHUF 191153Z 19005KT 10SM CLR 11/08 A3018 RMK AO2 SLP218 T01060078 10128 20100 50006
 
KIND - Indianapolis, Indiana, USA
Distance from station: NE 36mi, 58km
Updated: Thu, 19-Oct-2017 7:54am EDT
Partly cloudy
Partly cloudy
 Wind from SSW
Wind: SSW 6 mph , 9 km/h
Temperature: 48°F , 9°C
Wind Chill: 45°F , 7°C
Dew Point: 45°F , 7°C
Humidity: 87%
Barometer: 30.18 inHg , 1022 hPa
Clouds: Partly cloudy
Visibility: 10 miles , 16 km
Cloud details: Partly cloudy 25000 ft
2017/10/19 11:54 KIND 191154Z 21005KT 10SM SCT250 09/07 A3018 RMK AO2 SLP219 T00890067 10122 20089 53004
KBAK - Columbus/Balkala, Indiana, USA
Distance from station: E 43mi, 69km
Updated: Thu, 19-Oct-2017 7:45am EDT
Clear
Clear
 Wind from S
Wind: S 6 mph , 9 km/h
Temperature: 45°F , 7°C
Wind Chill: 42°F , 6°C
Dew Point: 41°F , 5°C
Humidity: 87%
Barometer: 30.21 inHg , 1023 hPa
Clouds: Clear
Visibility: 10 miles , 16 km
2017/10/19 11:45 KBAK 191145Z 18005KT 10SM SKC 07/05 A3021
 
KEYE - Indianapolis, Indiana, USA
Distance from station: NNE 43mi, 69km
Updated: Thu, 19-Oct-2017 7:53am EDT
Clear
Clear
 Wind from S
Wind: S 3 mph , 6 km/h
Temperature: 50°F , 10°C
Dew Point: 45°F , 7°C
Humidity: 82%
Barometer: 30.16 inHg , 1021.3 hPa
Clouds: Clear
Visibility: 10 miles , 16 km
2017/10/19 11:53 KEYE 191153Z AUTO 19003KT 10SM CLR 10/07 A3016 RMK AO2 SLP213 T01000067 10106 20083 50003
KDCY - Daviess County, Indiana, USA
Distance from station: SSW 47mi, 76km
Updated: Thu, 19-Oct-2017 8:15am EDT
Clear
Clear
 Wind from SSE
Wind: SSE 5 mph , 7 km/h
Temperature: 45°F , 7°C
Wind Chill: 42°F , 6°C
Dew Point: 43°F , 6°C
Humidity: 93%
Barometer: 30.20 inHg , 1022.7 hPa
Clouds: Clear
Visibility: 10 miles , 16 km
2017/10/19 12:15 KDCY 191215Z AUTO 16004KT 10SM CLR 07/06 A3020 RMK AO2 T00730063
 
KGEZ - Shelbyville, Indiana, USA
Distance from station: ENE 52mi, 83km
Updated: Thu, 19-Oct-2017 7:53am EDT
Clear
Clear
 Wind from S
Wind: S 9 mph , 15 km/h
Temperature: 50°F , 10°C
Wind Chill: 46°F , 8°C
Dew Point: 43°F , 6°C
Humidity: 76%
Barometer: 30.19 inHg , 1022.4 hPa
Clouds: Clear
Visibility: 10 miles , 16 km
2017/10/19 11:53 KGEZ 191153Z AUTO 18008KT 10SM CLR 10/06 A3019 RMK AO2 SLP222 T01000061 10117 20089 53003
KRSV - Robinson Muni, Illinois, USA
Distance from station: WSW 55mi, 88km
Updated: Thu, 19-Oct-2017 8:15am EDT
Clear
Clear
 Wind from calm
Wind: Calm
Temperature: 48°F , 9°C
Dew Point: 46°F , 8°C
Humidity: 94%
Barometer: 30.19 inHg , 1022.4 hPa
Clouds: Clear
Visibility: 10 miles , 16 km
2017/10/19 12:15 KRSV 191215Z AUTO 00000KT 10SM CLR 09/08 A3019 RMK AO2 T00870076
 
KTYQ - Indianapolis Exc, Indiana, USA
Distance from station: NNE 56mi, 90km
Updated: Thu, 19-Oct-2017 8:15am EDT
Clear
Clear
 Wind from SSW
Wind: SSW 6 mph , 9 km/h
Temperature: 50°F , 10°C
Wind Chill: 48°F , 9°C
Dew Point: 46°F , 8°C
Humidity: 88%
Barometer: 30.17 inHg , 1021.7 hPa
Clouds: Clear
Visibility: 10 miles , 16 km
2017/10/19 12:15 KTYQ 191215Z AUTO 20005KT 10SM CLR 10/08 A3017 RMK AO2 T00950075
KMQJ - Indianapolis Reg, Indiana, USA
Distance from station: NE 57mi, 92km
Updated: Thu, 19-Oct-2017 8:15am EDT
Clear
Clear
 Wind from S
Wind: S 5 mph , 7 km/h
Temperature: 46°F , 8°C
Wind Chill: 44°F , 7°C
Dew Point: 46°F , 8°C
Humidity: 100%
Barometer: 30.18 inHg , 1022 hPa
Clouds: Clear
Visibility: 10 miles , 16 km
2017/10/19 12:15 KMQJ 191215Z AUTO 19004KT 10SM CLR 08/08 A3018 RMK AO1
 
KPRG - Paris, Illinois, USA
Distance from station: WNW 59mi, 94km
Updated: Thu, 19-Oct-2017 8:15am EDT
Clear
Clear
 Wind from SSW
Wind: SSW 6 mph , 9 km/h
Temperature: 50°F , 10°C
Wind Chill: 48°F , 9°C
Dew Point: 48°F , 9°C
Humidity: 94%
Barometer: 30.16 inHg , 1021.3 hPa
Clouds: Clear
Visibility: 10 miles , 16 km
2017/10/19 12:15 KPRG 191215Z AUTO 20005KT 10SM CLR 10/09 A3016 RMK AO2 T01020085
KLWV - Lawrenceville, Illinois, USA
Distance from station: SW 61mi, 98km
Updated: Thu, 19-Oct-2017 7:53am EDT
Clear
Clear
 Wind from S
Wind: S 7 mph , 11 km/h
Temperature: 48°F , 9°C
Wind Chill: 45°F , 7°C
Dew Point: 45°F , 7°C
Humidity: 87%
Barometer: 30.20 inHg , 1022.7 hPa
Clouds: Clear
Visibility: 10 miles , 16 km
2017/10/19 11:53 KLWV 191153Z AUTO 18006KT 10SM CLR 09/07 A3020 RMK AO2 SLP226 T00890072 10106 20089 51007
 
KAJG - Mount Carmel, Illinois, USA
Distance from station: SW 73mi, 117km
Updated: Thu, 19-Oct-2017 8:15am EDT
Clear
Clear
 Wind from calm
Wind: Calm
Temperature: 50°F , 10°C
Dew Point: 46°F , 8°C
Humidity: 88%
Barometer: 30.19 inHg , 1022.4 hPa
Clouds: Clear
Visibility: 10 miles , 16 km
2017/10/19 12:15 KAJG 191215Z AUTO 00000KT 10SM CLR 10/08 A3019 RMK AO2 T00960075
KHNB - Huntingburg, Indiana, USA
Distance from station: S 74mi, 119km
Updated: Thu, 19-Oct-2017 6:56am EDT
NOT Current
Clear
Clear
 Wind from SSE
Wind: SSE 5 mph , 7 km/h
Temperature: 48°F , 9°C
Wind Chill: 46°F , 8°C
Dew Point: 45°F , 7°C
Humidity: 87%
Barometer: 30.23 inHg , 1023.7 hPa
Clouds: Clear
Visibility: 10 miles , 16 km
2017/10/19 10:56 KHNB 191056Z AUTO 16004KT 10SM CLR 09/07 A3023 RMK AO2 SLP236 T00940072
 
KLAF - Lafayette, Indiana, USA
Distance from station: N 78mi, 126km
Updated: Thu, 19-Oct-2017 7:54am EDT
Clear
Clear
 Wind from SW
Wind: SW 6 mph , 9 km/h
Temperature: 52°F , 11°C
Dew Point: 46°F , 8°C
Humidity: 82%
Barometer: 30.14 inHg , 1020.7 hPa
Clouds: Clear
Visibility: 10 miles , 16 km
2017/10/19 11:54 KLAF 191154Z 23005KT 10SM CLR 11/08 A3014 RMK AO2 SLP207 T01060083 10111 20100 53010
KDNV - Danville, Illinois, USA
Distance from station: NW 79mi, 126km
Updated: Thu, 19-Oct-2017 8:15am EDT
Clear
Clear
 Wind from S
Wind: S 5 mph , 7 km/h
Temperature: 48°F , 9°C
Wind Chill: 46°F , 8°C
Dew Point: 46°F , 8°C
Humidity: 94%
Barometer: 30.13 inHg , 1020.3 hPa
Clouds: Clear
Visibility: 10 miles , 16 km
2017/10/19 12:15 KDNV 191215Z AUTO 19004KT 10SM CLR 09/08 A3013 RMK AO2 T00890075
 
KAID - Anderson Municip, Indiana, USA
Distance from station: NE 81mi, 130km
Updated: Thu, 19-Oct-2017 7:59am EDT
Clear
Clear
 Wind from SSW
Wind: SSW 12 mph , 19 km/h
Temperature: 52°F , 11°C
Dew Point: 45°F , 7°C
Humidity: 77%
Barometer: 30.17 inHg , 1021.7 hPa
Clouds: Clear
Visibility: 10 miles , 16 km
2017/10/19 11:59 KAID 191159Z 20010KT 10SM CLR 11/07 A3017
KMTO - Mattoon/Charlest, Illinois, USA
Distance from station: W 85mi, 136km
Updated: Thu, 19-Oct-2017 7:53am EDT
Clear
Clear
 Wind from SSW
Wind: SSW 9 mph , 15 km/h
Temperature: 52°F , 11°C
Dew Point: 48°F , 9°C
Humidity: 88%
Barometer: 30.15 inHg , 1021 hPa
Clouds: Clear
Visibility: 10 miles , 16 km
2017/10/19 11:53 KMTO 191153Z AUTO 20008KT 10SM CLR 11/09 A3015 RMK AO2 SLP207 T01110089 10128 20111 51009
 
KOLY - Olney-Noble, Illinois, USA
Distance from station: WSW 89mi, 144km
Updated: Thu, 19-Oct-2017 8:15am EDT
Clear
Clear
 Wind from S
Wind: S 6 mph , 9 km/h
Temperature: 50°F , 10°C
Wind Chill: 48°F , 9°C
Dew Point: 48°F , 9°C
Humidity: 94%
Barometer: 30.20 inHg , 1022.7 hPa
Clouds: Clear
Visibility: 10 miles , 16 km
2017/10/19 12:15 KOLY 191215Z AUTO 17005KT 10SM CLR 10/09 A3020 RMK AO2 T00960085
KOKK - Kokomo, Indiana, USA
Distance from station: NNE 92mi, 148km
Updated: Thu, 19-Oct-2017 7:56am EDT
Clear
Clear
 Wind from SW
Wind: SW 9 mph , 15 km/h
Temperature: 52°F , 11°C
Dew Point: 46°F , 8°C
Humidity: 82%
Barometer: 30.15 inHg , 1021 hPa
Clouds: Clear
Visibility: 10 miles , 16 km
2017/10/19 11:56 KOKK 191156Z AUTO 22008KT 10SM CLR 11/08 A3015 RMK AO2 SLP213 T01110078 10128 20100 53008